sensor_id;sensor_type;location;lat;lon;timestamp;pressure;altitude;pressure_sealevel;temperature;humidity
44351;BME280;62766;62.622;17.912;2023-04-06T00:02:17;102407.68;;;1.00;43.95
44351;BME280;62766;62.622;17.912;2023-04-06T00:04:45;102401.62;;;0.83;43.90
44351;BME280;62766;62.622;17.912;2023-04-06T00:07:14;102396.69;;;0.79;44.42
44351;BME280;62766;62.622;17.912;2023-04-06T00:09:42;102385.73;;;0.70;44.51
44351;BME280;62766;62.622;17.912;2023-04-06T00:12:12;102385.15;;;0.61;44.76
44351;BME280;62766;62.622;17.912;2023-04-06T00:14:41;102389.48;;;0.77;44.87
44351;BME280;62766;62.622;17.912;2023-04-06T00:17:10;102399.86;;;0.80;44.88
44351;BME280;62766;62.622;17.912;2023-04-06T00:19:40;102394.95;;;0.85;44.90
44351;BME280;62766;62.622;17.912;2023-04-06T00:22:08;102398.84;;;1.00;44.99
44351;BME280;62766;62.622;17.912;2023-04-06T00:24:37;102404.06;;;0.79;45.11
44351;BME280;62766;62.622;17.912;2023-04-06T00:27:05;102398.66;;;0.92;45.37
44351;BME280;62766;62.622;17.912;2023-04-06T00:29:34;102393.79;;;0.93;45.28
44351;BME280;62766;62.622;17.912;2023-04-06T00:32:02;102395.92;;;0.91;45.21
44351;BME280;62766;62.622;17.912;2023-04-06T00:34:31;102393.14;;;1.04;45.06
44351;BME280;62766;62.622;17.912;2023-04-06T00:36:59;102390.88;;;0.88;44.87
44351;BME280;62766;62.622;17.912;2023-04-06T00:39:28;102392.46;;;0.98;44.77
44351;BME280;62766;62.622;17.912;2023-04-06T00:41:56;102398.03;;;0.90;45.22
44351;BME280;62766;62.622;17.912;2023-04-06T00:44:25;102397.53;;;0.88;45.30
44351;BME280;62766;62.622;17.912;2023-04-06T00:46:53;102394.63;;;0.86;45.34
44351;BME280;62766;62.622;17.912;2023-04-06T00:49:22;102390.90;;;0.73;45.32
44351;BME280;62766;62.622;17.912;2023-04-06T00:51:50;102392.60;;;0.88;45.28
44351;BME280;62766;62.622;17.912;2023-04-06T00:54:19;102392.20;;;0.84;45.39
44351;BME280;62766;62.622;17.912;2023-04-06T00:56:47;102395.87;;;0.77;45.62
44351;BME280;62766;62.622;17.912;2023-04-06T00:59:16;102396.75;;;0.76;45.60
44351;BME280;62766;62.622;17.912;2023-04-06T01:01:44;102394.16;;;0.75;45.44
44351;BME280;62766;62.622;17.912;2023-04-06T01:04:13;102394.03;;;0.82;45.57
44351;BME280;62766;62.622;17.912;2023-04-06T01:06:41;102394.82;;;0.87;45.79
44351;BME280;62766;62.622;17.912;2023-04-06T01:09:10;102398.21;;;0.85;45.58
44351;BME280;62766;62.622;17.912;2023-04-06T01:11:39;102397.51;;;0.94;45.63
44351;BME280;62766;62.622;17.912;2023-04-06T01:14:07;102397.02;;;0.80;45.71
44351;BME280;62766;62.622;17.912;2023-04-06T01:16:37;102396.76;;;0.91;45.76
44351;BME280;62766;62.622;17.912;2023-04-06T01:19:07;102396.56;;;0.86;45.79
44351;BME280;62766;62.622;17.912;2023-04-06T01:21:36;102392.66;;;0.79;45.98
44351;BME280;62766;62.622;17.912;2023-04-06T01:24:05;102392.63;;;0.72;45.85
44351;BME280;62766;62.622;17.912;2023-04-06T01:26:37;102394.56;;;0.83;45.96
44351;BME280;62766;62.622;17.912;2023-04-06T01:29:06;102392.81;;;0.97;46.07
44351;BME280;62766;62.622;17.912;2023-04-06T01:31:34;102395.89;;;1.09;46.11
44351;BME280;62766;62.622;17.912;2023-04-06T01:34:03;102399.82;;;1.14;46.07
44351;BME280;62766;62.622;17.912;2023-04-06T01:36:32;102397.96;;;1.05;46.09
44351;BME280;62766;62.622;17.912;2023-04-06T01:39:00;102398.00;;;1.07;46.02
44351;BME280;62766;62.622;17.912;2023-04-06T01:41:29;102391.66;;;1.09;46.03
44351;BME280;62766;62.622;17.912;2023-04-06T01:43:57;102392.33;;;1.23;46.17
44351;BME280;62766;62.622;17.912;2023-04-06T01:46:26;102393.71;;;1.19;46.27
44351;BME280;62766;62.622;17.912;2023-04-06T01:48:54;102391.32;;;1.22;46.16
44351;BME280;62766;62.622;17.912;2023-04-06T01:51:23;102387.49;;;1.21;46.24
44351;BME280;62766;62.622;17.912;2023-04-06T01:53:52;102388.66;;;1.32;46.25
44351;BME280;62766;62.622;17.912;2023-04-06T01:56:20;102389.96;;;1.15;46.47
44351;BME280;62766;62.622;17.912;2023-04-06T01:58:49;102390.45;;;1.16;46.54
44351;BME280;62766;62.622;17.912;2023-04-06T02:01:18;102388.59;;;1.18;46.47
44351;BME280;62766;62.622;17.912;2023-04-06T02:03:47;102389.86;;;1.22;46.60
44351;BME280;62766;62.622;17.912;2023-04-06T02:06:15;102388.68;;;1.34;46.62
44351;BME280;62766;62.622;17.912;2023-04-06T02:08:43;102385.89;;;1.27;46.87
44351;BME280;62766;62.622;17.912;2023-04-06T02:11:12;102384.48;;;1.22;46.93
44351;BME280;62766;62.622;17.912;2023-04-06T02:13:42;102381.18;;;1.23;47.13
44351;BME280;62766;62.622;17.912;2023-04-06T02:16:11;102383.09;;;1.21;47.28
44351;BME280;62766;62.622;17.912;2023-04-06T02:18:41;102379.58;;;1.18;47.30
44351;BME280;62766;62.622;17.912;2023-04-06T02:21:09;102380.57;;;1.19;47.37
44351;BME280;62766;62.622;17.912;2023-04-06T02:23:38;102379.13;;;1.16;47.25
44351;BME280;62766;62.622;17.912;2023-04-06T02:26:06;102379.24;;;1.19;47.22
44351;BME280;62766;62.622;17.912;2023-04-06T02:28:34;102379.19;;;1.24;47.45
44351;BME280;62766;62.622;17.912;2023-04-06T02:31:04;102378.35;;;1.30;47.70
44351;BME280;62766;62.622;17.912;2023-04-06T02:33:32;102379.03;;;1.23;47.75
44351;BME280;62766;62.622;17.912;2023-04-06T02:36:00;102378.74;;;1.18;47.99
44351;BME280;62766;62.622;17.912;2023-04-06T02:38:28;102377.04;;;1.01;48.07
44351;BME280;62766;62.622;17.912;2023-04-06T02:40:57;102373.74;;;1.11;48.18
44351;BME280;62766;62.622;17.912;2023-04-06T02:43:26;102375.59;;;1.16;48.38
44351;BME280;62766;62.622;17.912;2023-04-06T02:45:54;102374.16;;;1.13;48.41
44351;BME280;62766;62.622;17.912;2023-04-06T02:48:23;102374.37;;;1.13;48.60
44351;BME280;62766;62.622;17.912;2023-04-06T02:50:52;102374.61;;;1.12;48.86
44351;BME280;62766;62.622;17.912;2023-04-06T02:53:20;102373.37;;;1.12;49.30
44351;BME280;62766;62.622;17.912;2023-04-06T02:55:48;102375.32;;;1.17;49.42
44351;BME280;62766;62.622;17.912;2023-04-06T02:58:17;102377.72;;;1.23;49.62
44351;BME280;62766;62.622;17.912;2023-04-06T03:00:45;102380.34;;;1.26;49.89
44351;BME280;62766;62.622;17.912;2023-04-06T03:03:14;102377.90;;;1.33;50.26
44351;BME280;62766;62.622;17.912;2023-04-06T03:05:42;102381.41;;;1.25;50.54
44351;BME280;62766;62.622;17.912;2023-04-06T03:08:12;102382.20;;;1.18;50.77
44351;BME280;62766;62.622;17.912;2023-04-06T03:10:41;102385.35;;;1.18;51.22
44351;BME280;62766;62.622;17.912;2023-04-06T03:13:11;102383.06;;;1.06;51.41
44351;BME280;62766;62.622;17.912;2023-04-06T03:15:40;102382.71;;;1.17;52.00
44351;BME280;62766;62.622;17.912;2023-04-06T03:18:08;102381.55;;;1.15;52.52
44351;BME280;62766;62.622;17.912;2023-04-06T03:20:37;102380.50;;;1.08;52.69
44351;BME280;62766;62.622;17.912;2023-04-06T03:23:05;102382.32;;;1.17;53.25
44351;BME280;62766;62.622;17.912;2023-04-06T03:25:34;102379.71;;;1.07;53.43
44351;BME280;62766;62.622;17.912;2023-04-06T03:28:03;102380.27;;;1.20;53.80
44351;BME280;62766;62.622;17.912;2023-04-06T03:30:32;102382.89;;;1.07;54.13
44351;BME280;62766;62.622;17.912;2023-04-06T03:33:00;102387.52;;;1.15;54.15
44351;BME280;62766;62.622;17.912;2023-04-06T03:35:29;102388.43;;;1.18;54.57
44351;BME280;62766;62.622;17.912;2023-04-06T03:37:57;102389.49;;;1.15;54.92
44351;BME280;62766;62.622;17.912;2023-04-06T03:40:26;102388.02;;;1.09;55.46
44351;BME280;62766;62.622;17.912;2023-04-06T03:42:55;102390.13;;;1.02;55.82
44351;BME280;62766;62.622;17.912;2023-04-06T03:45:23;102384.97;;;0.95;56.03
44351;BME280;62766;62.622;17.912;2023-04-06T03:47:52;102387.00;;;1.02;56.39
44351;BME280;62766;62.622;17.912;2023-04-06T03:50:20;102391.23;;;1.07;56.59
44351;BME280;62766;62.622;17.912;2023-04-06T03:52:49;102393.22;;;1.13;56.85
44351;BME280;62766;62.622;17.912;2023-04-06T03:55:17;102391.22;;;0.97;56.97
44351;BME280;62766;62.622;17.912;2023-04-06T03:57:46;102389.87;;;1.06;56.83
44351;BME280;62766;62.622;17.912;2023-04-06T04:03:31;102393.80;;;0.91;57.31
44351;BME280;62766;62.622;17.912;2023-04-06T04:06:00;102395.70;;;1.03;57.57
44351;BME280;62766;62.622;17.912;2023-04-06T04:08:28;102393.19;;;0.96;57.34
44351;BME280;62766;62.622;17.912;2023-04-06T04:10:56;102400.15;;;1.07;57.57
44351;BME280;62766;62.622;17.912;2023-04-06T04:13:26;102401.88;;;1.08;57.51
44351;BME280;62766;62.622;17.912;2023-04-06T04:15:54;102398.94;;;1.06;57.39
44351;BME280;62766;62.622;17.912;2023-04-06T04:18:23;102399.84;;;1.08;57.18
44351;BME280;62766;62.622;17.912;2023-04-06T04:20:51;102400.35;;;1.05;57.29
44351;BME280;62766;62.622;17.912;2023-04-06T04:23:20;102402.37;;;1.17;57.34
44351;BME280;62766;62.622;17.912;2023-04-06T04:25:48;102402.37;;;1.10;57.26
44351;BME280;62766;62.622;17.912;2023-04-06T04:28:16;102409.24;;;1.25;57.54
44351;BME280;62766;62.622;17.912;2023-04-06T04:30:46;102410.48;;;1.22;57.60
44351;BME280;62766;62.622;17.912;2023-04-06T04:33:14;102410.78;;;1.14;57.40
44351;BME280;62766;62.622;17.912;2023-04-06T04:35:43;102412.84;;;1.03;57.50
44351;BME280;62766;62.622;17.912;2023-04-06T04:38:11;102412.86;;;1.16;57.81
44351;BME280;62766;62.622;17.912;2023-04-06T04:40:40;102409.82;;;1.17;57.60
44351;BME280;62766;62.622;17.912;2023-04-06T04:43:08;102413.98;;;1.14;57.60
44351;BME280;62766;62.622;17.912;2023-04-06T04:45:37;102411.27;;;1.15;57.47
44351;BME280;62766;62.622;17.912;2023-04-06T04:48:05;102412.73;;;1.18;57.30
44351;BME280;62766;62.622;17.912;2023-04-06T04:50:34;102409.23;;;1.18;57.52
44351;BME280;62766;62.622;17.912;2023-04-06T04:53:02;102406.02;;;1.34;57.53
44351;BME280;62766;62.622;17.912;2023-04-06T04:55:31;102403.53;;;1.18;57.65
44351;BME280;62766;62.622;17.912;2023-04-06T04:57:59;102406.34;;;1.35;57.72
44351;BME280;62766;62.622;17.912;2023-04-06T05:00:28;102410.19;;;1.31;57.84
44351;BME280;62766;62.622;17.912;2023-04-06T05:02:56;102412.37;;;1.34;57.84
44351;BME280;62766;62.622;17.912;2023-04-06T05:05:25;102415.46;;;1.38;57.80
44351;BME280;62766;62.622;17.912;2023-04-06T05:07:53;102419.46;;;1.24;57.79
44351;BME280;62766;62.622;17.912;2023-04-06T05:10:22;102423.74;;;1.49;57.83
44351;BME280;62766;62.622;17.912;2023-04-06T05:12:50;102423.19;;;1.33;57.82
44351;BME280;62766;62.622;17.912;2023-04-06T05:15:19;102424.13;;;1.29;57.88
44351;BME280;62766;62.622;17.912;2023-04-06T05:17:47;102425.73;;;1.44;58.01
44351;BME280;62766;62.622;17.912;2023-04-06T05:20:16;102430.57;;;1.40;57.85
44351;BME280;62766;62.622;17.912;2023-04-06T05:22:45;102436.06;;;1.45;57.86
44351;BME280;62766;62.622;17.912;2023-04-06T05:25:14;102438.25;;;1.66;57.83
44351;BME280;62766;62.622;17.912;2023-04-06T05:27:42;102440.48;;;1.47;57.69
44351;BME280;62766;62.622;17.912;2023-04-06T05:30:11;102438.51;;;1.65;57.84
44351;BME280;62766;62.622;17.912;2023-04-06T05:32:39;102439.50;;;1.54;57.85
44351;BME280;62766;62.622;17.912;2023-04-06T05:35:08;102432.37;;;1.78;57.88
44351;BME280;62766;62.622;17.912;2023-04-06T05:37:38;102432.44;;;1.67;57.51
44351;BME280;62766;62.622;17.912;2023-04-06T05:40:07;102435.68;;;1.63;57.50
44351;BME280;62766;62.622;17.912;2023-04-06T05:42:37;102435.26;;;1.83;57.68
44351;BME280;62766;62.622;17.912;2023-04-06T05:45:06;102433.68;;;1.87;57.79
44351;BME280;62766;62.622;17.912;2023-04-06T05:47:36;102437.61;;;1.84;57.59
44351;BME280;62766;62.622;17.912;2023-04-06T05:50:06;102436.79;;;1.83;57.54
44351;BME280;62766;62.622;17.912;2023-04-06T05:52:36;102435.63;;;2.05;57.46
44351;BME280;62766;62.622;17.912;2023-04-06T05:55:05;102431.82;;;2.14;57.19
44351;BME280;62766;62.622;17.912;2023-04-06T05:57:33;102429.22;;;2.16;57.09
44351;BME280;62766;62.622;17.912;2023-04-06T06:00:01;102433.25;;;2.16;57.18
44351;BME280;62766;62.622;17.912;2023-04-06T06:02:30;102430.63;;;2.25;56.86
44351;BME280;62766;62.622;17.912;2023-04-06T06:04:58;102428.82;;;2.13;56.87
44351;BME280;62766;62.622;17.912;2023-04-06T06:07:27;102428.06;;;2.30;56.84
44351;BME280;62766;62.622;17.912;2023-04-06T06:09:56;102428.77;;;2.21;56.78
44351;BME280;62766;62.622;17.912;2023-04-06T06:12:24;102430.03;;;2.27;56.49
44351;BME280;62766;62.622;17.912;2023-04-06T06:14:53;102429.12;;;2.48;56.76
44351;BME280;62766;62.622;17.912;2023-04-06T06:17:23;102428.13;;;2.39;56.49
44351;BME280;62766;62.622;17.912;2023-04-06T06:19:51;102430.73;;;2.59;56.20
44351;BME280;62766;62.622;17.912;2023-04-06T06:22:19;102431.19;;;2.53;56.04
44351;BME280;62766;62.622;17.912;2023-04-06T06:24:48;102434.95;;;2.52;56.06
44351;BME280;62766;62.622;17.912;2023-04-06T06:27:16;102435.49;;;2.59;56.00
44351;BME280;62766;62.622;17.912;2023-04-06T06:29:44;102434.81;;;2.63;55.74
44351;BME280;62766;62.622;17.912;2023-04-06T06:32:13;102433.99;;;2.70;55.35
44351;BME280;62766;62.622;17.912;2023-04-06T06:34:41;102436.88;;;2.56;55.37
44351;BME280;62766;62.622;17.912;2023-04-06T06:37:10;102438.65;;;2.62;55.35
44351;BME280;62766;62.622;17.912;2023-04-06T06:39:39;102436.90;;;2.72;55.24
44351;BME280;62766;62.622;17.912;2023-04-06T06:42:07;102437.88;;;2.76;54.94
44351;BME280;62766;62.622;17.912;2023-04-06T06:44:36;102441.07;;;2.62;54.74
44351;BME280;62766;62.622;17.912;2023-04-06T06:47:07;102440.92;;;2.68;54.80
44351;BME280;62766;62.622;17.912;2023-04-06T06:49:37;102442.11;;;2.61;54.70
44351;BME280;62766;62.622;17.912;2023-04-06T06:52:04;102440.34;;;2.77;54.88
44351;BME280;62766;62.622;17.912;2023-04-06T06:54:33;102443.55;;;2.97;54.59
44351;BME280;62766;62.622;17.912;2023-04-06T06:57:01;102442.37;;;2.85;54.48
44351;BME280;62766;62.622;17.912;2023-04-06T06:59:30;102442.24;;;3.06;54.39
44351;BME280;62766;62.622;17.912;2023-04-06T07:01:59;102445.41;;;3.08;54.35
44351;BME280;62766;62.622;17.912;2023-04-06T07:04:27;102444.22;;;3.12;54.23
44351;BME280;62766;62.622;17.912;2023-04-06T07:06:56;102446.35;;;3.13;54.05
44351;BME280;62766;62.622;17.912;2023-04-06T07:09:25;102446.50;;;3.25;53.92
44351;BME280;62766;62.622;17.912;2023-04-06T07:11:54;102446.37;;;3.17;53.81
44351;BME280;62766;62.622;17.912;2023-04-06T07:14:22;102449.52;;;3.25;54.46
44351;BME280;62766;62.622;17.912;2023-04-06T07:16:50;102450.94;;;3.18;54.52
44351;BME280;62766;62.622;17.912;2023-04-06T07:19:20;102454.51;;;3.25;54.71
44351;BME280;62766;62.622;17.912;2023-04-06T07:21:50;102455.08;;;3.21;54.80
44351;BME280;62766;62.622;17.912;2023-04-06T07:24:19;102457.21;;;3.25;54.70
44351;BME280;62766;62.622;17.912;2023-04-06T07:26:48;102460.27;;;3.18;54.84
44351;BME280;62766;62.622;17.912;2023-04-06T07:29:17;102460.04;;;3.14;54.98
44351;BME280;62766;62.622;17.912;2023-04-06T07:31:45;102462.16;;;3.15;54.98
44351;BME280;62766;62.622;17.912;2023-04-06T07:34:13;102461.38;;;3.13;54.85
44351;BME280;62766;62.622;17.912;2023-04-06T07:36:41;102461.89;;;3.15;55.06
44351;BME280;62766;62.622;17.912;2023-04-06T07:39:10;102461.56;;;3.19;55.37
44351;BME280;62766;62.622;17.912;2023-04-06T07:41:38;102460.05;;;3.18;55.24
44351;BME280;62766;62.622;17.912;2023-04-06T07:44:07;102458.23;;;3.30;54.92
44351;BME280;62766;62.622;17.912;2023-04-06T07:46:36;102457.21;;;3.16;54.98
44351;BME280;62766;62.622;17.912;2023-04-06T07:49:04;102457.76;;;3.18;55.04
44351;BME280;62766;62.622;17.912;2023-04-06T07:51:36;102463.18;;;3.46;55.18
44351;BME280;62766;62.622;17.912;2023-04-06T07:54:05;102464.73;;;3.50;55.24
44351;BME280;62766;62.622;17.912;2023-04-06T07:56:33;102467.51;;;3.35;55.19
44351;BME280;62766;62.622;17.912;2023-04-06T07:59:01;102469.37;;;3.53;55.85
44351;BME280;62766;62.622;17.912;2023-04-06T08:01:30;102466.06;;;3.49;55.89
44351;BME280;62766;62.622;17.912;2023-04-06T08:03:58;102469.83;;;3.53;56.13
44351;BME280;62766;62.622;17.912;2023-04-06T08:06:27;102470.69;;;3.49;56.33
44351;BME280;62766;62.622;17.912;2023-04-06T08:08:55;102467.97;;;3.41;56.52
44351;BME280;62766;62.622;17.912;2023-04-06T08:11:23;102467.45;;;3.50;56.57
44351;BME280;62766;62.622;17.912;2023-04-06T08:13:52;102471.31;;;3.52;56.74
44351;BME280;62766;62.622;17.912;2023-04-06T08:16:20;102473.45;;;3.67;56.52
44351;BME280;62766;62.622;17.912;2023-04-06T08:18:49;102470.38;;;3.88;56.45
44351;BME280;62766;62.622;17.912;2023-04-06T08:21:18;102469.06;;;3.76;56.14
44351;BME280;62766;62.622;17.912;2023-04-06T08:23:46;102470.77;;;3.91;56.38
44351;BME280;62766;62.622;17.912;2023-04-06T08:26:14;102468.57;;;3.92;56.28
44351;BME280;62766;62.622;17.912;2023-04-06T08:28:43;102469.39;;;3.91;56.02
44351;BME280;62766;62.622;17.912;2023-04-06T08:31:12;102470.92;;;3.67;56.13
44351;BME280;62766;62.622;17.912;2023-04-06T08:33:40;102467.60;;;3.58;56.43
44351;BME280;62766;62.622;17.912;2023-04-06T08:36:10;102476.19;;;3.75;56.51
44351;BME280;62766;62.622;17.912;2023-04-06T08:38:40;102472.97;;;3.82;56.43
44351;BME280;62766;62.622;17.912;2023-04-06T08:41:10;102474.44;;;3.71;56.41
44351;BME280;62766;62.622;17.912;2023-04-06T08:43:43;102470.60;;;3.76;56.51
44351;BME280;62766;62.622;17.912;2023-04-06T08:46:12;102468.89;;;3.97;56.59
44351;BME280;62766;62.622;17.912;2023-04-06T08:48:42;102465.39;;;3.95;56.46
44351;BME280;62766;62.622;17.912;2023-04-06T08:51:11;102466.14;;;3.90;56.53
44351;BME280;62766;62.622;17.912;2023-04-06T08:53:39;102460.63;;;4.05;56.28
44351;BME280;62766;62.622;17.912;2023-04-06T08:56:10;102463.00;;;3.94;56.30
44351;BME280;62766;62.622;17.912;2023-04-06T08:58:39;102462.68;;;3.99;56.43
44351;BME280;62766;62.622;17.912;2023-04-06T09:01:11;102465.81;;;3.87;56.42
44351;BME280;62766;62.622;17.912;2023-04-06T09:03:42;102467.77;;;4.05;56.50
44351;BME280;62766;62.622;17.912;2023-04-06T09:06:11;102464.69;;;3.97;56.17
44351;BME280;62766;62.622;17.912;2023-04-06T09:08:42;102461.11;;;3.97;56.45
44351;BME280;62766;62.622;17.912;2023-04-06T09:11:11;102463.45;;;3.98;55.98
44351;BME280;62766;62.622;17.912;2023-04-06T09:13:48;102465.93;;;4.11;56.03
44351;BME280;62766;62.622;17.912;2023-04-06T09:16:17;102461.57;;;4.21;55.95
44351;BME280;62766;62.622;17.912;2023-04-06T09:18:47;102460.62;;;4.30;55.75
44351;BME280;62766;62.622;17.912;2023-04-06T09:21:17;102461.52;;;4.41;55.65
44351;BME280;62766;62.622;17.912;2023-04-06T09:23:46;102465.08;;;4.55;55.34
44351;BME280;62766;62.622;17.912;2023-04-06T09:26:16;102467.13;;;4.66;55.28
44351;BME280;62766;62.622;17.912;2023-04-06T09:28:46;102465.75;;;4.68;55.15
44351;BME280;62766;62.622;17.912;2023-04-06T09:31:17;102462.96;;;4.65;55.09
44351;BME280;62766;62.622;17.912;2023-04-06T09:33:49;102460.73;;;4.67;54.83
44351;BME280;62766;62.622;17.912;2023-04-06T09:36:18;102462.58;;;4.88;54.60
44351;BME280;62766;62.622;17.912;2023-04-06T09:38:52;102462.58;;;4.90;54.68
44351;BME280;62766;62.622;17.912;2023-04-06T09:41:23;102458.66;;;4.74;54.51
44351;BME280;62766;62.622;17.912;2023-04-06T09:43:52;102459.22;;;4.88;54.50
44351;BME280;62766;62.622;17.912;2023-04-06T09:46:22;102461.63;;;4.96;54.17
44351;BME280;62766;62.622;17.912;2023-04-06T09:48:52;102462.73;;;4.79;53.96
44351;BME280;62766;62.622;17.912;2023-04-06T09:51:21;102466.71;;;4.74;54.14
44351;BME280;62766;62.622;17.912;2023-04-06T09:53:52;102467.53;;;4.64;54.26
44351;BME280;62766;62.622;17.912;2023-04-06T09:56:24;102465.99;;;4.60;54.54
44351;BME280;62766;62.622;17.912;2023-04-06T09:59:02;102465.07;;;4.48;54.45
44351;BME280;62766;62.622;17.912;2023-04-06T10:03:45;102468.47;;;4.36;54.81
44351;BME280;62766;62.622;17.912;2023-04-06T10:06:14;102471.91;;;4.43;54.79
44351;BME280;62766;62.622;17.912;2023-04-06T10:08:46;102468.25;;;4.42;54.78
44351;BME280;62766;62.622;17.912;2023-04-06T10:11:16;102472.50;;;4.64;54.74
44351;BME280;62766;62.622;17.912;2023-04-06T10:13:44;102469.89;;;4.68;54.63
44351;BME280;62766;62.622;17.912;2023-04-06T10:16:14;102463.26;;;4.60;54.59
44351;BME280;62766;62.622;17.912;2023-04-06T10:18:46;102465.47;;;4.65;55.05
44351;BME280;62766;62.622;17.912;2023-04-06T10:21:19;102465.69;;;4.58;55.15
44351;BME280;62766;62.622;17.912;2023-04-06T10:23:51;102462.26;;;4.64;55.18
44351;BME280;62766;62.622;17.912;2023-04-06T10:26:20;102460.34;;;4.63;55.31
44351;BME280;62766;62.622;17.912;2023-04-06T10:28:50;102460.45;;;4.62;55.33
44351;BME280;62766;62.622;17.912;2023-04-06T10:31:24;102466.33;;;4.70;55.32
44351;BME280;62766;62.622;17.912;2023-04-06T10:33:54;102466.82;;;4.67;55.43
44351;BME280;62766;62.622;17.912;2023-04-06T10:36:24;102464.92;;;4.68;55.60
44351;BME280;62766;62.622;17.912;2023-04-06T10:38:56;102462.70;;;4.61;55.79
44351;BME280;62766;62.622;17.912;2023-04-06T10:41:32;102465.47;;;4.46;55.65
44351;BME280;62766;62.622;17.912;2023-04-06T10:44:02;102462.18;;;4.57;55.95
44351;BME280;62766;62.622;17.912;2023-04-06T10:46:32;102462.41;;;4.46;56.27
44351;BME280;62766;62.622;17.912;2023-04-06T10:49:10;102468.14;;;4.40;56.51
44351;BME280;62766;62.622;17.912;2023-04-06T10:51:40;102467.26;;;4.45;56.57
44351;BME280;62766;62.622;17.912;2023-04-06T10:54:11;102467.27;;;4.48;56.52
44351;BME280;62766;62.622;17.912;2023-04-06T10:56:41;102458.34;;;4.45;56.59
44351;BME280;62766;62.622;17.912;2023-04-06T10:59:10;102460.42;;;4.59;56.56
44351;BME280;62766;62.622;17.912;2023-04-06T11:01:44;102461.61;;;4.45;56.55
44351;BME280;62766;62.622;17.912;2023-04-06T11:04:15;102466.33;;;4.46;56.62
44351;BME280;62766;62.622;17.912;2023-04-06T11:06:46;102465.29;;;4.42;56.69
44351;BME280;62766;62.622;17.912;2023-04-06T11:09:23;102467.31;;;4.53;56.66
44351;BME280;62766;62.622;17.912;2023-04-06T11:11:51;102460.31;;;4.52;56.66
44351;BME280;62766;62.622;17.912;2023-04-06T11:14:19;102461.19;;;4.47;56.80
44351;BME280;62766;62.622;17.912;2023-04-06T11:16:48;102461.23;;;4.35;56.93
44351;BME280;62766;62.622;17.912;2023-04-06T11:19:17;102460.81;;;4.47;57.23
44351;BME280;62766;62.622;17.912;2023-04-06T11:21:46;102459.03;;;4.52;57.24
44351;BME280;62766;62.622;17.912;2023-04-06T11:24:16;102460.91;;;4.52;57.44
44351;BME280;62766;62.622;17.912;2023-04-06T11:26:47;102462.49;;;4.51;57.48
44351;BME280;62766;62.622;17.912;2023-04-06T11:29:19;102463.94;;;4.46;57.34
44351;BME280;62766;62.622;17.912;2023-04-06T11:31:49;102464.83;;;4.52;57.24
44351;BME280;62766;62.622;17.912;2023-04-06T11:34:18;102464.00;;;4.58;57.14
44351;BME280;62766;62.622;17.912;2023-04-06T11:36:48;102467.60;;;4.63;57.07
44351;BME280;62766;62.622;17.912;2023-04-06T11:39:20;102467.13;;;4.69;56.92
44351;BME280;62766;62.622;17.912;2023-04-06T11:41:49;102465.14;;;4.59;56.89
44351;BME280;62766;62.622;17.912;2023-04-06T11:44:29;102467.12;;;4.70;56.98
44351;BME280;62766;62.622;17.912;2023-04-06T11:46:58;102456.60;;;4.72;56.75
44351;BME280;62766;62.622;17.912;2023-04-06T11:49:27;102455.98;;;4.88;56.85
44351;BME280;62766;62.622;17.912;2023-04-06T11:51:55;102457.66;;;4.84;56.95
44351;BME280;62766;62.622;17.912;2023-04-06T11:54:32;102459.28;;;4.95;56.79
44351;BME280;62766;62.622;17.912;2023-04-06T11:57:01;102464.36;;;4.90;56.65
44351;BME280;62766;62.622;17.912;2023-04-06T11:59:31;102464.73;;;5.08;56.66
44351;BME280;62766;62.622;17.912;2023-04-06T12:02:01;102462.35;;;4.74;57.02
44351;BME280;62766;62.622;17.912;2023-04-06T12:04:31;102463.78;;;4.72;57.39
44351;BME280;62766;62.622;17.912;2023-04-06T12:06:59;102461.82;;;4.58;57.78
44351;BME280;62766;62.622;17.912;2023-04-06T12:09:28;102457.89;;;4.51;58.09
44351;BME280;62766;62.622;17.912;2023-04-06T12:11:58;102452.11;;;4.43;58.50
44351;BME280;62766;62.622;17.912;2023-04-06T12:14:26;102455.94;;;4.35;58.71
44351;BME280;62766;62.622;17.912;2023-04-06T12:16:55;102455.07;;;4.45;58.77
44351;BME280;62766;62.622;17.912;2023-04-06T12:19:24;102454.93;;;4.52;58.56
44351;BME280;62766;62.622;17.912;2023-04-06T12:21:52;102455.29;;;4.65;58.41
44351;BME280;62766;62.622;17.912;2023-04-06T12:24:20;102450.08;;;4.76;58.20
44351;BME280;62766;62.622;17.912;2023-04-06T12:26:49;102450.07;;;4.85;58.01
44351;BME280;62766;62.622;17.912;2023-04-06T12:29:17;102448.97;;;4.91;57.88
44351;BME280;62766;62.622;17.912;2023-04-06T12:31:45;102447.54;;;4.86;57.72
44351;BME280;62766;62.622;17.912;2023-04-06T12:34:14;102446.87;;;4.95;57.59
44351;BME280;62766;62.622;17.912;2023-04-06T12:36:43;102445.84;;;4.86;57.97
44351;BME280;62766;62.622;17.912;2023-04-06T12:39:11;102443.46;;;4.83;58.09
44351;BME280;62766;62.622;17.912;2023-04-06T12:41:42;102448.78;;;4.76;58.00
44351;BME280;62766;62.622;17.912;2023-04-06T12:44:10;102448.07;;;4.58;58.34
44351;BME280;62766;62.622;17.912;2023-04-06T12:46:39;102447.54;;;4.65;58.65
44351;BME280;62766;62.622;17.912;2023-04-06T12:49:09;102443.71;;;4.56;58.83
44351;BME280;62766;62.622;17.912;2023-04-06T12:51:37;102443.86;;;4.61;58.97
44351;BME280;62766;62.622;17.912;2023-04-06T12:54:06;102440.56;;;4.54;58.92
44351;BME280;62766;62.622;17.912;2023-04-06T12:56:34;102434.89;;;4.53;58.75
44351;BME280;62766;62.622;17.912;2023-04-06T12:59:03;102433.74;;;4.60;58.90
44351;BME280;62766;62.622;17.912;2023-04-06T13:01:32;102433.01;;;4.51;58.96
44351;BME280;62766;62.622;17.912;2023-04-06T13:04:00;102430.11;;;4.55;58.99
44351;BME280;62766;62.622;17.912;2023-04-06T13:06:28;102427.24;;;4.48;59.18